sensor_id;sensor_type;location;lat;lon;timestamp;P1;durP1;ratioP1;P2;durP2;ratioP2
23472;SDS011;11909;52.516;13.564;2024-01-11T00:01:15;21.98;;;11.82;;
23472;SDS011;11909;52.516;13.564;2024-01-11T00:03:42;20.40;;;11.50;;
23472;SDS011;11909;52.516;13.564;2024-01-11T00:06:10;20.95;;;11.25;;
23472;SDS011;11909;52.516;13.564;2024-01-11T00:08:38;24.52;;;11.30;;
23472;SDS011;11909;52.516;13.564;2024-01-11T00:11:07;19.42;;;10.35;;
23472;SDS011;11909;52.516;13.564;2024-01-11T00:13:36;18.98;;;10.57;;
23472;SDS011;11909;52.516;13.564;2024-01-11T00:16:04;19.98;;;10.63;;
23472;SDS011;11909;52.516;13.564;2024-01-11T00:18:32;20.05;;;9.68;;
23472;SDS011;11909;52.516;13.564;2024-01-11T00:21:00;17.08;;;9.02;;
23472;SDS011;11909;52.516;13.564;2024-01-11T00:23:28;16.45;;;8.65;;
23472;SDS011;11909;52.516;13.564;2024-01-11T00:25:56;16.30;;;9.05;;
23472;SDS011;11909;52.516;13.564;2024-01-11T00:28:24;13.80;;;7.47;;
23472;SDS011;11909;52.516;13.564;2024-01-11T00:30:53;12.15;;;6.72;;
23472;SDS011;11909;52.516;13.564;2024-01-11T00:33:21;17.35;;;7.55;;
23472;SDS011;11909;52.516;13.564;2024-01-11T00:35:49;13.77;;;7.22;;
23472;SDS011;11909;52.516;13.564;2024-01-11T00:38:17;11.95;;;7.45;;
23472;SDS011;11909;52.516;13.564;2024-01-11T00:40:45;15.77;;;8.23;;
23472;SDS011;11909;52.516;13.564;2024-01-11T00:43:13;12.75;;;7.72;;
23472;SDS011;11909;52.516;13.564;2024-01-11T00:45:41;15.73;;;7.10;;
23472;SDS011;11909;52.516;13.564;2024-01-11T00:48:10;13.27;;;7.50;;
23472;SDS011;11909;52.516;13.564;2024-01-11T00:50:38;20.58;;;9.35;;
23472;SDS011;11909;52.516;13.564;2024-01-11T00:53:06;15.80;;;8.32;;
23472;SDS011;11909;52.516;13.564;2024-01-11T00:55:35;20.50;;;8.82;;
23472;SDS011;11909;52.516;13.564;2024-01-11T00:58:02;15.55;;;7.97;;
23472;SDS011;11909;52.516;13.564;2024-01-11T01:00:31;23.23;;;9.88;;
23472;SDS011;11909;52.516;13.564;2024-01-11T01:02:58;20.17;;;9.35;;
23472;SDS011;11909;52.516;13.564;2024-01-11T01:05:28;16.63;;;8.57;;
23472;SDS011;11909;52.516;13.564;2024-01-11T01:07:56;17.65;;;8.75;;
23472;SDS011;11909;52.516;13.564;2024-01-11T01:10:23;19.80;;;9.20;;
23472;SDS011;11909;52.516;13.564;2024-01-11T01:12:51;21.60;;;9.80;;
23472;SDS011;11909;52.516;13.564;2024-01-11T01:15:19;18.45;;;8.75;;
23472;SDS011;11909;52.516;13.564;2024-01-11T01:17:47;18.10;;;8.80;;
23472;SDS011;11909;52.516;13.564;2024-01-11T01:20:15;19.85;;;8.57;;
23472;SDS011;11909;52.516;13.564;2024-01-11T01:22:44;19.27;;;9.35;;
23472;SDS011;11909;52.516;13.564;2024-01-11T01:25:12;25.13;;;10.05;;
23472;SDS011;11909;52.516;13.564;2024-01-11T01:27:40;17.50;;;8.57;;
23472;SDS011;11909;52.516;13.564;2024-01-11T01:30:08;19.65;;;10.00;;
23472;SDS011;11909;52.516;13.564;2024-01-11T01:32:36;19.20;;;9.63;;
23472;SDS011;11909;52.516;13.564;2024-01-11T01:35:04;17.83;;;9.75;;
23472;SDS011;11909;52.516;13.564;2024-01-11T01:37:32;17.30;;;8.38;;
23472;SDS011;11909;52.516;13.564;2024-01-11T01:40:01;18.58;;;8.95;;
23472;SDS011;11909;52.516;13.564;2024-01-11T01:42:30;15.82;;;8.00;;
23472;SDS011;11909;52.516;13.564;2024-01-11T01:44:58;17.02;;;8.25;;
23472;SDS011;11909;52.516;13.564;2024-01-11T01:47:26;15.60;;;7.75;;
23472;SDS011;11909;52.516;13.564;2024-01-11T01:49:54;15.38;;;7.90;;
23472;SDS011;11909;52.516;13.564;2024-01-11T01:52:23;14.40;;;7.20;;
23472;SDS011;11909;52.516;13.564;2024-01-11T01:54:51;15.02;;;7.55;;
23472;SDS011;11909;52.516;13.564;2024-01-11T01:57:21;16.77;;;7.97;;
23472;SDS011;11909;52.516;13.564;2024-01-11T01:59:49;17.13;;;7.97;;
23472;SDS011;11909;52.516;13.564;2024-01-11T02:02:19;16.67;;;7.65;;
23472;SDS011;11909;52.516;13.564;2024-01-11T02:04:47;14.77;;;7.25;;
23472;SDS011;11909;52.516;13.564;2024-01-11T02:07:16;12.70;;;6.65;;
23472;SDS011;11909;52.516;13.564;2024-01-11T02:09:44;15.38;;;7.50;;
23472;SDS011;11909;52.516;13.564;2024-01-11T02:12:14;13.55;;;6.82;;
23472;SDS011;11909;52.516;13.564;2024-01-11T02:14:43;12.75;;;6.40;;
23472;SDS011;11909;52.516;13.564;2024-01-11T02:17:12;14.07;;;7.32;;
23472;SDS011;11909;52.516;13.564;2024-01-11T02:19:39;16.48;;;7.20;;
23472;SDS011;11909;52.516;13.564;2024-01-11T02:22:08;13.90;;;6.85;;
23472;SDS011;11909;52.516;13.564;2024-01-11T02:24:44;16.33;;;7.43;;
23472;SDS011;11909;52.516;13.564;2024-01-11T02:27:12;17.00;;;7.40;;
23472;SDS011;11909;52.516;13.564;2024-01-11T02:29:40;13.73;;;7.57;;
23472;SDS011;11909;52.516;13.564;2024-01-11T02:32:08;15.85;;;7.68;;
23472;SDS011;11909;52.516;13.564;2024-01-11T02:34:36;14.38;;;6.95;;
23472;SDS011;11909;52.516;13.564;2024-01-11T02:37:04;13.40;;;7.53;;
23472;SDS011;11909;52.516;13.564;2024-01-11T02:39:33;16.02;;;7.70;;
23472;SDS011;11909;52.516;13.564;2024-01-11T02:42:02;17.02;;;7.70;;
23472;SDS011;11909;52.516;13.564;2024-01-11T02:44:30;13.70;;;5.63;;
23472;SDS011;11909;52.516;13.564;2024-01-11T02:46:58;13.02;;;6.70;;
23472;SDS011;11909;52.516;13.564;2024-01-11T02:49:26;15.57;;;7.43;;
23472;SDS011;11909;52.516;13.564;2024-01-11T02:51:54;15.98;;;7.65;;
23472;SDS011;11909;52.516;13.564;2024-01-11T02:54:22;15.15;;;7.22;;
23472;SDS011;11909;52.516;13.564;2024-01-11T02:56:50;14.93;;;7.28;;
23472;SDS011;11909;52.516;13.564;2024-01-11T02:59:19;16.40;;;7.70;;
23472;SDS011;11909;52.516;13.564;2024-01-11T03:04:15;18.10;;;7.90;;
23472;SDS011;11909;52.516;13.564;2024-01-11T03:06:43;18.90;;;8.27;;
23472;SDS011;11909;52.516;13.564;2024-01-11T03:09:11;17.17;;;7.70;;
23472;SDS011;11909;52.516;13.564;2024-01-11T03:11:39;15.95;;;8.27;;
23472;SDS011;11909;52.516;13.564;2024-01-11T03:14:07;18.65;;;8.27;;
23472;SDS011;11909;52.516;13.564;2024-01-11T03:16:36;15.82;;;8.15;;
23472;SDS011;11909;52.516;13.564;2024-01-11T03:19:05;17.90;;;8.38;;
23472;SDS011;11909;52.516;13.564;2024-01-11T03:21:33;16.88;;;7.82;;
23472;SDS011;11909;52.516;13.564;2024-01-11T03:24:02;14.43;;;7.63;;
23472;SDS011;11909;52.516;13.564;2024-01-11T03:26:30;18.58;;;7.88;;
23472;SDS011;11909;52.516;13.564;2024-01-11T03:28:58;18.48;;;8.27;;
23472;SDS011;11909;52.516;13.564;2024-01-11T03:31:27;16.00;;;7.55;;
23472;SDS011;11909;52.516;13.564;2024-01-11T03:33:56;17.65;;;7.50;;
23472;SDS011;11909;52.516;13.564;2024-01-11T03:36:24;19.43;;;8.17;;
23472;SDS011;11909;52.516;13.564;2024-01-11T03:38:52;17.52;;;8.25;;
23472;SDS011;11909;52.516;13.564;2024-01-11T03:41:20;17.23;;;7.85;;
23472;SDS011;11909;52.516;13.564;2024-01-11T03:43:47;15.82;;;8.23;;
23472;SDS011;11909;52.516;13.564;2024-01-11T03:46:16;18.55;;;9.10;;
23472;SDS011;11909;52.516;13.564;2024-01-11T03:48:43;20.15;;;9.23;;
23472;SDS011;11909;52.516;13.564;2024-01-11T03:51:12;16.80;;;9.23;;
23472;SDS011;11909;52.516;13.564;2024-01-11T03:53:41;20.98;;;9.43;;
23472;SDS011;11909;52.516;13.564;2024-01-11T03:56:09;20.90;;;9.68;;
23472;SDS011;11909;52.516;13.564;2024-01-11T03:58:36;23.77;;;10.60;;
23472;SDS011;11909;52.516;13.564;2024-01-11T04:01:06;19.25;;;9.73;;
23472;SDS011;11909;52.516;13.564;2024-01-11T04:03:36;24.83;;;10.52;;
23472;SDS011;11909;52.516;13.564;2024-01-11T04:06:04;20.10;;;9.25;;
23472;SDS011;11909;52.516;13.564;2024-01-11T04:08:34;21.58;;;10.85;;
23472;SDS011;11909;52.516;13.564;2024-01-11T04:11:02;23.33;;;9.83;;
23472;SDS011;11909;52.516;13.564;2024-01-11T04:13:31;23.90;;;10.00;;
23472;SDS011;11909;52.516;13.564;2024-01-11T04:15:59;26.25;;;10.18;;
23472;SDS011;11909;52.516;13.564;2024-01-11T04:18:31;21.65;;;9.43;;
23472;SDS011;11909;52.516;13.564;2024-01-11T04:21:00;22.48;;;9.65;;
23472;SDS011;11909;52.516;13.564;2024-01-11T04:23:28;25.35;;;10.45;;
23472;SDS011;11909;52.516;13.564;2024-01-11T04:25:57;22.05;;;9.70;;
23472;SDS011;11909;52.516;13.564;2024-01-11T04:28:25;25.83;;;10.43;;
23472;SDS011;11909;52.516;13.564;2024-01-11T04:30:53;26.77;;;10.18;;
23472;SDS011;11909;52.516;13.564;2024-01-11T04:33:21;29.35;;;10.43;;
23472;SDS011;11909;52.516;13.564;2024-01-11T04:35:49;29.48;;;10.38;;
23472;SDS011;11909;52.516;13.564;2024-01-11T04:38:17;25.05;;;10.10;;
23472;SDS011;11909;52.516;13.564;2024-01-11T04:40:45;28.77;;;10.32;;
23472;SDS011;11909;52.516;13.564;2024-01-11T04:43:14;25.58;;;10.35;;
23472;SDS011;11909;52.516;13.564;2024-01-11T04:45:42;25.15;;;10.48;;
23472;SDS011;11909;52.516;13.564;2024-01-11T04:48:10;28.60;;;11.52;;
23472;SDS011;11909;52.516;13.564;2024-01-11T04:50:38;25.98;;;10.45;;
23472;SDS011;11909;52.516;13.564;2024-01-11T04:53:06;28.75;;;10.70;;
23472;SDS011;11909;52.516;13.564;2024-01-11T04:55:34;28.92;;;10.68;;
23472;SDS011;11909;52.516;13.564;2024-01-11T04:58:02;29.60;;;11.38;;
23472;SDS011;11909;52.516;13.564;2024-01-11T05:00:31;30.15;;;9.90;;
23472;SDS011;11909;52.516;13.564;2024-01-11T05:02:59;20.30;;;8.17;;
23472;SDS011;11909;52.516;13.564;2024-01-11T05:05:27;23.80;;;10.02;;
23472;SDS011;11909;52.516;13.564;2024-01-11T05:07:55;26.58;;;10.35;;
23472;SDS011;11909;52.516;13.564;2024-01-11T05:10:23;26.98;;;10.93;;
23472;SDS011;11909;52.516;13.564;2024-01-11T05:12:51;23.92;;;10.23;;
23472;SDS011;11909;52.516;13.564;2024-01-11T05:15:18;29.92;;;11.60;;
23472;SDS011;11909;52.516;13.564;2024-01-11T05:17:47;28.77;;;10.80;;
23472;SDS011;11909;52.516;13.564;2024-01-11T05:20:16;32.00;;;10.82;;
23472;SDS011;11909;52.516;13.564;2024-01-11T05:22:44;29.52;;;12.07;;
23472;SDS011;11909;52.516;13.564;2024-01-11T05:25:12;29.42;;;11.60;;
23472;SDS011;11909;52.516;13.564;2024-01-11T05:27:40;34.00;;;13.07;;
23472;SDS011;11909;52.516;13.564;2024-01-11T05:30:08;29.10;;;11.88;;
23472;SDS011;11909;52.516;13.564;2024-01-11T05:32:37;29.85;;;11.38;;
23472;SDS011;11909;52.516;13.564;2024-01-11T05:35:06;31.90;;;12.98;;
23472;SDS011;11909;52.516;13.564;2024-01-11T05:37:36;31.60;;;11.80;;
23472;SDS011;11909;52.516;13.564;2024-01-11T05:40:04;31.95;;;12.18;;
23472;SDS011;11909;52.516;13.564;2024-01-11T05:45:02;35.38;;;11.35;;
23472;SDS011;11909;52.516;13.564;2024-01-11T05:47:30;34.15;;;12.90;;
23472;SDS011;11909;52.516;13.564;2024-01-11T05:49:58;32.65;;;12.43;;
23472;SDS011;11909;52.516;13.564;2024-01-11T05:52:27;31.17;;;11.95;;
23472;SDS011;11909;52.516;13.564;2024-01-11T05:54:55;35.75;;;12.32;;
23472;SDS011;11909;52.516;13.564;2024-01-11T05:57:23;31.35;;;12.82;;
23472;SDS011;11909;52.516;13.564;2024-01-11T05:59:51;37.35;;;12.73;;
23472;SDS011;11909;52.516;13.564;2024-01-11T06:02:19;33.28;;;12.27;;
23472;SDS011;11909;52.516;13.564;2024-01-11T06:04:49;32.33;;;13.00;;
23472;SDS011;11909;52.516;13.564;2024-01-11T06:07:17;41.40;;;13.65;;
23472;SDS011;11909;52.516;13.564;2024-01-11T06:09:46;36.15;;;14.30;;
23472;SDS011;11909;52.516;13.564;2024-01-11T06:12:14;35.88;;;13.02;;
23472;SDS011;11909;52.516;13.564;2024-01-11T06:14:43;41.50;;;14.95;;
23472;SDS011;11909;52.516;13.564;2024-01-11T06:17:11;35.53;;;14.30;;
23472;SDS011;11909;52.516;13.564;2024-01-11T06:19:39;36.25;;;14.10;;
23472;SDS011;11909;52.516;13.564;2024-01-11T06:22:07;40.60;;;14.20;;
23472;SDS011;11909;52.516;13.564;2024-01-11T06:24:35;36.45;;;14.52;;
23472;SDS011;11909;52.516;13.564;2024-01-11T06:27:04;41.20;;;14.93;;
23472;SDS011;11909;52.516;13.564;2024-01-11T06:29:32;35.35;;;13.63;;
23472;SDS011;11909;52.516;13.564;2024-01-11T06:32:00;39.40;;;13.98;;
23472;SDS011;11909;52.516;13.564;2024-01-11T06:34:28;34.92;;;14.50;;
23472;SDS011;11909;52.516;13.564;2024-01-11T06:36:56;36.63;;;14.43;;
23472;SDS011;11909;52.516;13.564;2024-01-11T06:39:24;39.30;;;14.48;;
23472;SDS011;11909;52.516;13.564;2024-01-11T06:41:52;33.17;;;14.93;;
23472;SDS011;11909;52.516;13.564;2024-01-11T06:44:21;36.30;;;14.20;;
23472;SDS011;11909;52.516;13.564;2024-01-11T06:46:49;39.10;;;15.43;;
23472;SDS011;11909;52.516;13.564;2024-01-11T06:49:18;39.47;;;16.63;;
23472;SDS011;11909;52.516;13.564;2024-01-11T06:51:46;39.50;;;15.43;;
23472;SDS011;11909;52.516;13.564;2024-01-11T06:54:13;36.72;;;16.13;;
23472;SDS011;11909;52.516;13.564;2024-01-11T06:56:42;38.05;;;16.20;;
23472;SDS011;11909;52.516;13.564;2024-01-11T06:59:10;41.88;;;16.58;;
23472;SDS011;11909;52.516;13.564;2024-01-11T07:01:39;43.63;;;16.92;;
23472;SDS011;11909;52.516;13.564;2024-01-11T07:04:07;40.45;;;16.40;;
23472;SDS011;11909;52.516;13.564;2024-01-11T07:06:35;38.95;;;15.90;;
23472;SDS011;11909;52.516;13.564;2024-01-11T07:09:03;41.78;;;16.73;;
23472;SDS011;11909;52.516;13.564;2024-01-11T07:11:32;40.58;;;16.70;;
23472;SDS011;11909;52.516;13.564;2024-01-11T07:14:00;38.60;;;16.20;;
23472;SDS011;11909;52.516;13.564;2024-01-11T07:16:28;43.00;;;15.73;;
23472;SDS011;11909;52.516;13.564;2024-01-11T07:18:58;44.15;;;16.48;;
23472;SDS011;11909;52.516;13.564;2024-01-11T07:21:25;40.70;;;16.13;;
23472;SDS011;11909;52.516;13.564;2024-01-11T07:23:56;43.33;;;15.88;;
23472;SDS011;11909;52.516;13.564;2024-01-11T07:26:25;38.72;;;15.02;;
23472;SDS011;11909;52.516;13.564;2024-01-11T07:28:53;40.63;;;15.65;;
23472;SDS011;11909;52.516;13.564;2024-01-11T07:31:22;38.90;;;15.52;;
23472;SDS011;11909;52.516;13.564;2024-01-11T07:33:50;37.90;;;15.55;;
23472;SDS011;11909;52.516;13.564;2024-01-11T07:36:19;44.22;;;16.13;;
23472;SDS011;11909;52.516;13.564;2024-01-11T07:38:48;40.90;;;16.08;;
23472;SDS011;11909;52.516;13.564;2024-01-11T07:41:15;41.53;;;15.75;;
23472;SDS011;11909;52.516;13.564;2024-01-11T07:43:43;43.00;;;16.60;;
23472;SDS011;11909;52.516;13.564;2024-01-11T07:46:20;42.38;;;16.05;;
23472;SDS011;11909;52.516;13.564;2024-01-11T07:49:01;40.60;;;17.33;;
23472;SDS011;11909;52.516;13.564;2024-01-11T07:51:32;43.30;;;16.05;;
23472;SDS011;11909;52.516;13.564;2024-01-11T07:54:00;38.28;;;16.35;;
23472;SDS011;11909;52.516;13.564;2024-01-11T07:56:28;42.80;;;16.88;;
23472;SDS011;11909;52.516;13.564;2024-01-11T07:58:57;44.25;;;16.13;;
23472;SDS011;11909;52.516;13.564;2024-01-11T08:01:25;41.10;;;15.40;;
23472;SDS011;11909;52.516;13.564;2024-01-11T08:03:52;38.47;;;15.70;;
23472;SDS011;11909;52.516;13.564;2024-01-11T08:06:21;43.35;;;16.90;;
23472;SDS011;11909;52.516;13.564;2024-01-11T08:08:50;48.80;;;18.42;;
23472;SDS011;11909;52.516;13.564;2024-01-11T08:11:19;41.00;;;15.95;;
23472;SDS011;11909;52.516;13.564;2024-01-11T08:13:48;45.90;;;18.05;;
23472;SDS011;11909;52.516;13.564;2024-01-11T08:16:16;52.45;;;16.60;;
23472;SDS011;11909;52.516;13.564;2024-01-11T08:18:44;47.35;;;16.38;;
23472;SDS011;11909;52.516;13.564;2024-01-11T08:21:13;48.13;;;17.40;;
23472;SDS011;11909;52.516;13.564;2024-01-11T08:23:41;45.03;;;17.20;;
23472;SDS011;11909;52.516;13.564;2024-01-11T08:26:12;54.95;;;16.75;;
23472;SDS011;11909;52.516;13.564;2024-01-11T08:28:41;44.63;;;16.70;;
23472;SDS011;11909;52.516;13.564;2024-01-11T08:31:09;59.97;;;18.00;;
23472;SDS011;11909;52.516;13.564;2024-01-11T08:33:38;47.42;;;17.13;;
23472;SDS011;11909;52.516;13.564;2024-01-11T08:36:07;46.95;;;18.25;;
23472;SDS011;11909;52.516;13.564;2024-01-11T08:38:36;45.92;;;16.90;;
23472;SDS011;11909;52.516;13.564;2024-01-11T08:41:05;41.17;;;16.98;;
23472;SDS011;11909;52.516;13.564;2024-01-11T08:43:35;46.00;;;17.30;;
23472;SDS011;11909;52.516;13.564;2024-01-11T08:46:03;51.03;;;20.88;;
23472;SDS011;11909;52.516;13.564;2024-01-11T08:48:30;44.42;;;17.58;;
23472;SDS011;11909;52.516;13.564;2024-01-11T08:50:59;42.90;;;16.73;;
23472;SDS011;11909;52.516;13.564;2024-01-11T08:53:27;42.80;;;17.08;;
23472;SDS011;11909;52.516;13.564;2024-01-11T08:55:55;41.03;;;15.77;;
23472;SDS011;11909;52.516;13.564;2024-01-11T08:58:23;42.78;;;17.17;;
23472;SDS011;11909;52.516;13.564;2024-01-11T09:00:52;46.08;;;18.20;;
23472;SDS011;11909;52.516;13.564;2024-01-11T09:03:20;41.97;;;16.95;;
23472;SDS011;11909;52.516;13.564;2024-01-11T09:05:48;41.17;;;17.90;;
23472;SDS011;11909;52.516;13.564;2024-01-11T09:08:16;40.67;;;16.67;;
23472;SDS011;11909;52.516;13.564;2024-01-11T09:10:44;41.20;;;18.30;;
23472;SDS011;11909;52.516;13.564;2024-01-11T09:13:12;45.38;;;18.02;;
23472;SDS011;11909;52.516;13.564;2024-01-11T09:15:41;43.30;;;17.20;;
23472;SDS011;11909;52.516;13.564;2024-01-11T09:18:10;40.22;;;16.95;;
23472;SDS011;11909;52.516;13.564;2024-01-11T09:20:39;45.55;;;17.35;;
23472;SDS011;11909;52.516;13.564;2024-01-11T09:23:07;45.97;;;17.85;;
23472;SDS011;11909;52.516;13.564;2024-01-11T09:25:35;43.33;;;18.02;;
23472;SDS011;11909;52.516;13.564;2024-01-11T09:28:03;43.65;;;18.48;;
23472;SDS011;11909;52.516;13.564;2024-01-11T09:30:31;42.47;;;17.77;;
23472;SDS011;11909;52.516;13.564;2024-01-11T09:32:59;39.35;;;17.63;;
23472;SDS011;11909;52.516;13.564;2024-01-11T09:35:29;45.70;;;18.85;;
23472;SDS011;11909;52.516;13.564;2024-01-11T09:37:57;43.40;;;16.93;;
23472;SDS011;11909;52.516;13.564;2024-01-11T09:40:25;48.08;;;19.83;;
23472;SDS011;11909;52.516;13.564;2024-01-11T09:42:53;47.85;;;19.15;;
23472;SDS011;11909;52.516;13.564;2024-01-11T09:45:21;45.50;;;17.63;;
23472;SDS011;11909;52.516;13.564;2024-01-11T09:47:49;41.92;;;17.40;;
23472;SDS011;11909;52.516;13.564;2024-01-11T09:50:19;45.58;;;17.65;;
23472;SDS011;11909;52.516;13.564;2024-01-11T09:52:51;46.30;;;18.05;;
23472;SDS011;11909;52.516;13.564;2024-01-11T09:55:20;40.50;;;15.75;;
23472;SDS011;11909;52.516;13.564;2024-01-11T09:57:48;42.92;;;17.83;;
23472;SDS011;11909;52.516;13.564;2024-01-11T10:00:23;49.75;;;20.08;;
23472;SDS011;11909;52.516;13.564;2024-01-11T10:02:52;42.33;;;18.80;;
23472;SDS011;11909;52.516;13.564;2024-01-11T10:05:20;47.13;;;18.40;;
23472;SDS011;11909;52.516;13.564;2024-01-11T10:07:48;48.85;;;18.75;;
23472;SDS011;11909;52.516;13.564;2024-01-11T10:10:17;53.83;;;21.02;;
23472;SDS011;11909;52.516;13.564;2024-01-11T10:12:46;46.05;;;18.60;;
23472;SDS011;11909;52.516;13.564;2024-01-11T10:15:15;45.57;;;18.37;;
23472;SDS011;11909;52.516;13.564;2024-01-11T10:17:43;49.83;;;21.63;;
23472;SDS011;11909;52.516;13.564;2024-01-11T10:20:12;57.72;;;24.42;;
23472;SDS011;11909;52.516;13.564;2024-01-11T10:22:42;47.25;;;20.70;;
23472;SDS011;11909;52.516;13.564;2024-01-11T10:25:10;50.90;;;19.73;;
23472;SDS011;11909;52.516;13.564;2024-01-11T10:27:41;45.15;;;20.05;;
23472;SDS011;11909;52.516;13.564;2024-01-11T10:30:10;47.25;;;20.15;;
23472;SDS011;11909;52.516;13.564;2024-01-11T10:32:44;44.60;;;19.90;;
23472;SDS011;11909;52.516;13.564;2024-01-11T10:35:12;51.40;;;19.13;;
23472;SDS011;11909;52.516;13.564;2024-01-11T10:37:40;52.78;;;21.70;;
23472;SDS011;11909;52.516;13.564;2024-01-11T10:40:11;48.47;;;19.70;;
23472;SDS011;11909;52.516;13.564;2024-01-11T10:42:41;48.72;;;20.30;;
23472;SDS011;11909;52.516;13.564;2024-01-11T10:45:13;48.08;;;20.42;;
23472;SDS011;11909;52.516;13.564;2024-01-11T10:47:46;47.30;;;19.92;;
23472;SDS011;11909;52.516;13.564;2024-01-11T10:50:18;41.78;;;19.20;;
23472;SDS011;11909;52.516;13.564;2024-01-11T10:52:51;50.65;;;20.05;;
23472;SDS011;11909;52.516;13.564;2024-01-11T10:55:27;42.28;;;17.48;;
23472;SDS011;11909;52.516;13.564;2024-01-11T10:58:01;37.50;;;17.80;;
23472;SDS011;11909;52.516;13.564;2024-01-11T11:00:30;40.83;;;18.42;;
23472;SDS011;11909;52.516;13.564;2024-01-11T11:02:59;41.80;;;18.67;;
23472;SDS011;11909;52.516;13.564;2024-01-11T11:05:27;43.28;;;19.50;;
23472;SDS011;11909;52.516;13.564;2024-01-11T11:07:57;45.38;;;21.05;;
23472;SDS011;11909;52.516;13.564;2024-01-11T11:10:29;37.20;;;17.38;;
23472;SDS011;11909;52.516;13.564;2024-01-11T11:12:58;32.28;;;15.65;;
23472;SDS011;11909;52.516;13.564;2024-01-11T11:15:30;34.45;;;16.73;;
23472;SDS011;11909;52.516;13.564;2024-01-11T11:17:59;32.90;;;16.33;;
23472;SDS011;11909;52.516;13.564;2024-01-11T11:20:28;34.72;;;15.80;;
23472;SDS011;11909;52.516;13.564;2024-01-11T11:23:03;34.67;;;15.88;;
23472;SDS011;11909;52.516;13.564;2024-01-11T11:25:32;32.78;;;17.27;;
23472;SDS011;11909;52.516;13.564;2024-01-11T11:28:03;33.75;;;17.00;;
23472;SDS011;11909;52.516;13.564;2024-01-11T11:33:06;31.52;;;15.02;;
23472;SDS011;11909;52.516;13.564;2024-01-11T11:35:36;34.88;;;16.65;;
23472;SDS011;11909;52.516;13.564;2024-01-11T11:38:05;32.17;;;16.73;;
23472;SDS011;11909;52.516;13.564;2024-01-11T11:40:33;35.00;;;17.63;;
23472;SDS011;11909;52.516;13.564;2024-01-11T11:43:07;32.88;;;16.38;;
23472;SDS011;11909;52.516;13.564;2024-01-11T11:45:35;39.25;;;18.50;;
23472;SDS011;11909;52.516;13.564;2024-01-11T11:48:16;32.03;;;16.52;;
23472;SDS011;11909;52.516;13.564;2024-01-11T11:51:19;39.42;;;18.42;;
23472;SDS011;11909;52.516;13.564;2024-01-11T11:53:52;36.72;;;18.38;;
23472;SDS011;11909;52.516;13.564;2024-01-11T11:56:21;34.58;;;17.98;;
23472;SDS011;11909;52.516;13.564;2024-01-11T11:58:51;34.90;;;16.55;;
23472;SDS011;11909;52.516;13.564;2024-01-11T12:01:22;38.92;;;17.85;;
23472;SDS011;11909;52.516;13.564;2024-01-11T12:03:50;37.70;;;18.50;;
23472;SDS011;11909;52.516;13.564;2024-01-11T12:06:20;36.30;;;17.52;;
23472;SDS011;11909;52.516;13.564;2024-01-11T12:08:51;38.45;;;19.05;;
23472;SDS011;11909;52.516;13.564;2024-01-11T12:11:23;37.50;;;17.98;;
23472;SDS011;11909;52.516;13.564;2024-01-11T12:13:54;34.53;;;17.83;;
23472;SDS011;11909;52.516;13.564;2024-01-11T12:16:24;35.67;;;17.30;;
23472;SDS011;11909;52.516;13.564;2024-01-11T12:18:51;37.28;;;18.27;;
23472;SDS011;11909;52.516;13.564;2024-01-11T12:21:20;37.47;;;17.92;;
23472;SDS011;11909;52.516;13.564;2024-01-11T12:23:48;38.13;;;17.98;;
23472;SDS011;11909;52.516;13.564;2024-01-11T12:26:16;37.08;;;17.75;;
23472;SDS011;11909;52.516;13.564;2024-01-11T12:28:49;39.60;;;20.15;;
23472;SDS011;11909;52.516;13.564;2024-01-11T12:31:19;40.40;;;19.08;;
23472;SDS011;11909;52.516;13.564;2024-01-11T12:33:49;38.60;;;19.40;;
23472;SDS011;11909;52.516;13.564;2024-01-11T12:36:18;36.85;;;18.88;;
23472;SDS011;11909;52.516;13.564;2024-01-11T12:38:46;39.05;;;18.92;;
23472;SDS011;11909;52.516;13.564;2024-01-11T12:41:19;39.03;;;19.52;;
23472;SDS011;11909;52.516;13.564;2024-01-11T12:43:48;41.60;;;20.30;;
23472;SDS011;11909;52.516;13.564;2024-01-11T12:46:16;45.78;;;19.67;;
23472;SDS011;11909;52.516;13.564;2024-01-11T12:48:45;44.38;;;20.10;;
23472;SDS011;11909;52.516;13.564;2024-01-11T12:51:15;42.67;;;19.70;;
23472;SDS011;11909;52.516;13.564;2024-01-11T12:53:48;39.13;;;19.50;;
23472;SDS011;11909;52.516;13.564;2024-01-11T12:56:16;41.53;;;19.45;;
23472;SDS011;11909;52.516;13.564;2024-01-11T12:58:45;41.08;;;19.40;;
23472;SDS011;11909;52.516;13.564;2024-01-11T13:01:13;41.00;;;19.40;;
23472;SDS011;11909;52.516;13.564;2024-01-11T13:03:44;39.85;;;19.20;;
23472;SDS011;11909;52.516;13.564;2024-01-11T13:06:14;42.80;;;19.85;;
23472;SDS011;11909;52.516;13.564;2024-01-11T13:08:44;39.15;;;19.20;;
23472;SDS011;11909;52.516;13.564;2024-01-11T13:11:11;37.90;;;18.77;;
23472;SDS011;11909;52.516;13.564;2024-01-11T13:13:44;38.35;;;18.67;;
23472;SDS011;11909;52.516;13.564;2024-01-11T13:16:13;36.70;;;17.15;;
23472;SDS011;11909;52.516;13.564;2024-01-11T13:18:42;33.50;;;16.98;;
23472;SDS011;11909;52.516;13.564;2024-01-11T13:21:12;33.55;;;16.17;;
23472;SDS011;11909;52.516;13.564;2024-01-11T13:23:40;28.27;;;14.83;;
23472;SDS011;11909;52.516;13.564;2024-01-11T13:26:08;31.73;;;15.75;;
23472;SDS011;11909;52.516;13.564;2024-01-11T13:28:36;31.45;;;16.10;;
23472;SDS011;11909;52.516;13.564;2024-01-11T13:31:04;29.33;;;14.55;;
23472;SDS011;11909;52.516;13.564;2024-01-11T13:33:32;38.22;;;17.25;;
23472;SDS011;11909;52.516;13.564;2024-01-11T13:36:00;30.15;;;15.85;;
23472;SDS011;11909;52.516;13.564;2024-01-11T13:38:29;31.10;;;15.63;;
23472;SDS011;11909;52.516;13.564;2024-01-11T13:40:57;33.00;;;15.77;;
23472;SDS011;11909;52.516;13.564;2024-01-11T13:43:25;30.23;;;15.75;;
23472;SDS011;11909;52.516;13.564;2024-01-11T13:45:53;33.78;;;16.90;;
23472;SDS011;11909;52.516;13.564;2024-01-11T13:48:21;32.13;;;14.50;;
23472;SDS011;11909;52.516;13.564;2024-01-11T13:50:50;32.15;;;15.70;;
23472;SDS011;11909;52.516;13.564;2024-01-11T13:53:17;31.52;;;14.48;;
23472;SDS011;11909;52.516;13.564;2024-01-11T13:55:47;27.67;;;14.68;;
23472;SDS011;11909;52.516;13.564;2024-01-11T13:58:15;29.40;;;14.77;;
23472;SDS011;11909;52.516;13.564;2024-01-11T14:00:44;29.02;;;14.88;;
23472;SDS011;11909;52.516;13.564;2024-01-11T14:03:12;27.27;;;14.05;;
23472;SDS011;11909;52.516;13.564;2024-01-11T14:05:40;29.77;;;14.93;;
23472;SDS011;11909;52.516;13.564;2024-01-11T14:08:08;31.55;;;15.57;;
23472;SDS011;11909;52.516;13.564;2024-01-11T14:10:36;26.50;;;14.18;;
23472;SDS011;11909;52.516;13.564;2024-01-11T14:13:05;32.70;;;15.15;;
23472;SDS011;11909;52.516;13.564;2024-01-11T14:15:33;28.77;;;13.95;;
23472;SDS011;11909;52.516;13.564;2024-01-11T14:18:01;26.45;;;13.90;;
23472;SDS011;11909;52.516;13.564;2024-01-11T14:20:30;29.25;;;14.45;;
23472;SDS011;11909;52.516;13.564;2024-01-11T14:23:00;29.88;;;14.43;;
23472;SDS011;11909;52.516;13.564;2024-01-11T14:25:28;30.92;;;14.02;;
23472;SDS011;11909;52.516;13.564;2024-01-11T14:27:57;30.75;;;13.60;;